Aérodrome :
LOGIN :

S'inscrire | Disclaimer

   EN    FR    IT 

 










Légende :    VFR   VFR Marginal   IFR   IFR Intensif   IFR Très Intensif
Visi : 
Plafond : 
>= 8 km
>= 3000ft
5 à 8 km
1000 à 3000 ft
1500m à 5 km
500 à 1000 ft
800 à 1500m
200 à 500 ft
< 800m
< 200 ft
Symboles :   Orages  Brouillard  Fortes neiges  Fortes précipitations  Vent > 20 kt
SIGMETs :   Divers  Orages  Givrage  Turbulence  Onde Orograph.  Cendres Volcan.






- Altitude de l'aérodrome : 404 ft
- Code IATA : WRO


EPWR - Wroclaw

DERNIER METAR :
  • 301830Z 25005KT CAVOK 02/M08 Q1024

METARs EXPIRÉS :
  • 301800Z 24004KT CAVOK 02/M08 Q1024
  • 301730Z 27005KT 9999 FEW049 03/M09 Q1023
  • 301700Z 26004KT CAVOK 04/M09 Q1023
  • 301630Z 29006KT CAVOK 03/M08 Q1023
  • 301600Z 27007KT 9999 FEW050TCU 03/M09 Q1023

TAF TAF EPWR
Valide du 30 à 18h jusqu'au 31 à 18h UTC


301730Z 3018/3118 27005KT CAVOK
BECMG 3020/3022 BKN014
TEMPO 3022/3106 2000 SHSN BKN006 BKN012CB
PROB30
TEMPO 3022/3106 0700 +SHSN BKN003 BKN009CB
BECMG 3103/3106 01015G25KT
PROB40
TEMPO 3106/3108 3000 SHSN BKN007 BKN013CB
BECMG 3108/3110 35008KT SCT030
TEMPO 3110/3116 SCT030TCU



MET'MAP, la Météo Aéronautique d'un coup d'oeil ! - Copyright ORBIFLY Décembre 2007 - Disclaimer

ORBIFLY MET'MAP TEAM :

Programmation & Développement : Alexandra Zaïnal
Sur une idée originale de : Baudouin d'Aumeries
Assistance à la programmation : Marc-Olivier Méhu
Soutien technique & logistique : Manuel Goepfert

Contact : metmap@orbifly.com




SOURCES & CREDITS :

   NOAA